createdAt,value
2022-09-25T00:01:44.123Z,13.46
2022-09-25T00:04:54.608Z,13.49
2022-09-25T00:08:02.565Z,13.46
2022-09-25T00:11:20.513Z,13.43
2022-09-25T00:14:28.150Z,13.38
2022-09-25T00:17:31.571Z,13.37
2022-09-25T00:20:38.100Z,13.39
2022-09-25T00:23:46.546Z,13.39
2022-09-25T00:26:52.502Z,13.36
2022-09-25T00:29:59.886Z,13.37
2022-09-25T00:33:11.994Z,13.38
2022-09-25T00:36:19.708Z,13.39
2022-09-25T00:39:25.253Z,13.32
2022-09-25T00:42:28.919Z,13.35
2022-09-25T00:45:31.932Z,13.35
2022-09-25T00:48:38.514Z,13.36
2022-09-25T00:51:54.492Z,13.38
2022-09-25T00:55:03.651Z,13.40
2022-09-25T00:58:08.137Z,13.42
2022-09-25T01:01:16.663Z,13.44
2022-09-25T01:04:22.855Z,13.43
2022-09-25T01:10:47.758Z,13.38
2022-09-25T01:13:54.753Z,13.38
2022-09-25T01:17:08.466Z,13.37
2022-09-25T01:20:25.136Z,13.35
2022-09-25T01:23:45.799Z,13.32
2022-09-25T01:27:18.247Z,13.30
2022-09-25T01:30:23.097Z,13.16
2022-09-25T01:33:32.874Z,13.12
2022-09-25T01:36:40.455Z,13.07
2022-09-25T01:39:48.497Z,13.07
2022-09-25T01:42:56.646Z,13.09
2022-09-25T01:46:12.338Z,13.09
2022-09-25T01:49:26.117Z,13.06
2022-09-25T01:52:34.401Z,13.07
2022-09-25T01:55:43.313Z,13.01
2022-09-25T01:58:58.688Z,13.03
2022-09-25T02:02:07.677Z,13.04
2022-09-25T02:05:15.782Z,12.98
2022-09-25T02:08:30.013Z,13.00
2022-09-25T02:11:43.890Z,12.96
2022-09-25T02:14:52.410Z,12.97
2022-09-25T02:18:19.071Z,13.02
2022-09-25T02:21:30.142Z,13.00
2022-09-25T02:24:43.807Z,13.01
2022-09-25T02:27:48.999Z,13.04
2022-09-25T02:30:55.766Z,13.05
2022-09-25T02:34:14.737Z,13.07
2022-09-25T02:37:19.846Z,13.09
2022-09-25T02:40:29.723Z,13.12
2022-09-25T02:43:41.635Z,13.18
2022-09-25T02:46:59.289Z,13.19
2022-09-25T02:50:14.632Z,13.24
2022-09-25T02:53:24.049Z,13.24
2022-09-25T02:56:33.561Z,13.23
2022-09-25T02:59:45.962Z,13.20
2022-09-25T03:02:52.574Z,13.19
2022-09-25T03:06:01.953Z,13.17
2022-09-25T03:09:05.848Z,13.12
2022-09-25T03:12:09.047Z,13.09
2022-09-25T03:15:13.499Z,13.02
2022-09-25T03:18:17.175Z,13.00
2022-09-25T03:21:21.373Z,12.98
2022-09-25T03:24:27.502Z,12.99
2022-09-25T03:27:32.467Z,12.96
2022-09-25T03:30:35.429Z,12.93
2022-09-25T03:33:39.835Z,12.85
2022-09-25T03:36:46.964Z,12.89
2022-09-25T03:39:49.850Z,12.86
2022-09-25T03:42:52.933Z,12.90
2022-09-25T03:45:55.993Z,12.91
2022-09-25T03:49:01.444Z,12.92
2022-09-25T03:52:14.701Z,12.88
2022-09-25T03:55:17.892Z,12.87
2022-09-25T03:58:22.501Z,12.90
2022-09-25T04:01:27.171Z,12.90
2022-09-25T04:04:30.432Z,12.94
2022-09-25T04:07:34.762Z,12.93
2022-09-25T04:10:38.967Z,12.93
2022-09-25T04:13:46.319Z,12.92
2022-09-25T04:16:51.588Z,12.91
2022-09-25T04:19:54.709Z,12.90
2022-09-25T04:22:59.152Z,12.95
2022-09-25T04:26:04.147Z,12.97
2022-09-25T04:29:15.531Z,12.94
2022-09-25T04:32:35.932Z,12.94
2022-09-25T04:35:39.719Z,12.92
2022-09-25T04:38:53.071Z,12.94
2022-09-25T04:41:56.441Z,12.89
2022-09-25T04:44:59.852Z,12.84
2022-09-25T04:48:03.722Z,12.75
2022-09-25T04:51:16.515Z,12.72
2022-09-25T04:54:21.345Z,12.73
2022-09-25T04:57:56.691Z,12.69
2022-09-25T05:00:51.251Z,12.64
2022-09-25T05:03:57.230Z,12.64
2022-09-25T05:07:00.173Z,12.61
2022-09-25T05:10:08.063Z,12.60
2022-09-25T05:13:17.221Z,12.59
2022-09-25T05:16:21.013Z,12.55
2022-09-25T05:19:24.194Z,12.54
2022-09-25T05:22:27.082Z,12.53
2022-09-25T05:25:34.225Z,12.50
2022-09-25T05:28:37.338Z,12.48
2022-09-25T05:31:42.261Z,12.45
2022-09-25T05:34:45.252Z,12.39
2022-09-25T05:37:59.838Z,12.33
2022-09-25T05:41:10.425Z,12.30
2022-09-25T05:44:13.401Z,12.33
2022-09-25T05:47:16.327Z,12.39
2022-09-25T05:50:23.050Z,12.45
2022-09-25T05:53:27.219Z,12.47
2022-09-25T05:56:32.130Z,12.54
2022-09-25T05:59:52.585Z,12.63
2022-09-25T06:03:05.429Z,12.81
2022-09-25T06:06:08.939Z,12.96
2022-09-25T06:09:11.683Z,12.97
2022-09-25T06:12:19.790Z,13.02
2022-09-25T06:15:26.380Z,13.03
2022-09-25T06:18:32.580Z,13.08
2022-09-25T06:21:35.744Z,13.13
2022-09-25T06:24:53.436Z,13.11
2022-09-25T06:28:00.366Z,13.19
2022-09-25T06:31:04.547Z,13.24
2022-09-25T06:34:07.726Z,13.35
2022-09-25T06:37:10.461Z,13.49
2022-09-25T06:40:19.647Z,13.61
2022-09-25T06:43:29.218Z,13.73
2022-09-25T06:46:34.724Z,13.76
2022-09-25T06:49:37.920Z,13.81
2022-09-25T06:52:44.570Z,13.93
2022-09-25T06:55:48.598Z,14.00
2022-09-25T06:58:54.923Z,14.09
2022-09-25T07:02:24.668Z,14.29
2022-09-25T07:05:27.237Z,14.41
2022-09-25T07:08:30.257Z,14.56
2022-09-25T07:11:44.815Z,14.68
2022-09-25T07:14:49.289Z,14.71
2022-09-25T07:18:04.980Z,14.83
2022-09-25T07:21:12.877Z,15.00
2022-09-25T07:24:15.634Z,15.11
2022-09-25T07:27:18.689Z,15.20
2022-09-25T07:30:23.128Z,15.19
2022-09-25T07:33:25.952Z,15.23
2022-09-25T07:36:29.348Z,15.31
2022-09-25T07:39:32.128Z,15.35
2022-09-25T07:42:37.952Z,15.33
2022-09-25T07:45:44.469Z,15.24
2022-09-25T07:48:51.875Z,15.15
2022-09-25T07:51:54.828Z,15.11
2022-09-25T07:55:05.858Z,15.14
2022-09-25T07:58:08.962Z,15.19
2022-09-25T08:01:15.171Z,15.40
2022-09-25T08:04:18.154Z,15.68
2022-09-25T08:07:23.762Z,16.25
2022-09-25T08:10:28.941Z,16.55
2022-09-25T08:13:34.305Z,16.54
2022-09-25T08:16:48.542Z,16.66
2022-09-25T08:19:59.206Z,16.71
2022-09-25T08:23:11.441Z,16.93
2022-09-25T08:26:14.661Z,17.13
2022-09-25T08:29:31.642Z,17.40
2022-09-25T08:32:36.755Z,17.47
2022-09-25T08:35:46.238Z,17.61
2022-09-25T08:38:49.620Z,17.83
2022-09-25T08:42:03.274Z,17.83
2022-09-25T08:45:31.187Z,17.98
2022-09-25T08:49:06.528Z,18.28
2022-09-25T08:52:14.689Z,18.34
2022-09-25T08:55:25.750Z,18.44
2022-09-25T08:58:31.892Z,18.54
2022-09-25T09:01:45.134Z,18.38
2022-09-25T09:04:53.721Z,18.44
2022-09-25T09:08:04.415Z,18.28
2022-09-25T09:11:14.036Z,18.33
2022-09-25T09:14:20.896Z,18.44
2022-09-25T09:17:26.831Z,18.43
2022-09-25T09:20:39.248Z,18.30
2022-09-25T09:23:51.182Z,18.32
2022-09-25T09:27:11.042Z,18.28
2022-09-25T09:30:18.028Z,18.21
2022-09-25T09:33:34.360Z,18.55
2022-09-25T09:36:47.527Z,18.63
2022-09-25T09:40:09.331Z,18.67
2022-09-25T09:43:23.686Z,18.72
2022-09-25T09:46:35.317Z,18.60
2022-09-25T09:49:45.226Z,18.43
2022-09-25T09:52:53.971Z,18.60
2022-09-25T09:56:02.591Z,18.64
2022-09-25T09:59:08.201Z,18.72
2022-09-25T10:02:21.618Z,18.74
2022-09-25T10:05:27.167Z,18.82
2022-09-25T10:08:31.299Z,19.11
2022-09-25T10:11:35.057Z,19.40
2022-09-25T10:14:40.481Z,19.56
2022-09-25T10:17:43.916Z,20.42
2022-09-25T10:20:56.629Z,21.03
2022-09-25T10:24:03.023Z,21.40
2022-09-25T10:27:22.195Z,21.93
2022-09-25T10:30:24.899Z,22.13
2022-09-25T10:33:29.357Z,22.19
2022-09-25T10:36:43.260Z,22.34
2022-09-25T10:40:02.761Z,22.68
2022-09-25T10:43:15.396Z,22.87
2022-09-25T10:46:48.819Z,23.34
2022-09-25T10:50:08.783Z,22.59
2022-09-25T10:53:28.383Z,21.74
2022-09-25T10:56:37.050Z,21.66
2022-09-25T10:59:39.890Z,21.61
2022-09-25T11:02:46.559Z,21.29
2022-09-25T11:05:53.382Z,21.12
2022-09-25T11:09:04.909Z,21.21
2022-09-25T11:12:15.506Z,21.38
2022-09-25T11:15:20.910Z,21.34
2022-09-25T11:18:39.806Z,21.33
2022-09-25T11:21:49.966Z,21.31
2022-09-25T11:25:01.660Z,21.12
2022-09-25T11:28:14.483Z,21.29
2022-09-25T11:31:24.639Z,21.99
2022-09-25T11:34:43.100Z,22.52
2022-09-25T11:37:56.530Z,22.47
2022-09-25T11:41:12.821Z,22.36
2022-09-25T11:44:27.485Z,22.33
2022-09-25T11:47:36.634Z,22.24
2022-09-25T11:50:47.937Z,22.38
2022-09-25T11:54:25.308Z,22.41
2022-09-25T11:57:37.404Z,22.67
2022-09-25T12:00:49.557Z,22.42
2022-09-25T12:04:32.412Z,22.55
2022-09-25T12:07:53.026Z,23.00
2022-09-25T12:11:02.779Z,23.10
2022-09-25T12:14:14.129Z,23.04
2022-09-25T12:17:28.476Z,23.30
2022-09-25T12:20:37.721Z,23.20
2022-09-25T12:23:48.395Z,22.96
2022-09-25T12:27:01.491Z,23.00
2022-09-25T12:30:16.799Z,22.59
2022-09-25T12:33:31.700Z,22.18
2022-09-25T12:36:40.554Z,22.02
2022-09-25T12:39:46.030Z,21.93
2022-09-25T12:42:54.818Z,21.99
2022-09-25T12:46:02.111Z,21.99
2022-09-25T12:49:15.318Z,22.03
2022-09-25T12:52:22.465Z,21.93
2022-09-25T12:55:31.455Z,22.21
2022-09-25T12:58:52.546Z,21.68
2022-09-25T13:02:01.902Z,21.48
2022-09-25T13:05:12.813Z,21.21
2022-09-25T13:08:20.788Z,21.61
2022-09-25T13:11:35.137Z,21.65
2022-09-25T13:14:44.012Z,21.56
2022-09-25T13:17:46.636Z,21.23
2022-09-25T13:20:52.761Z,20.70
2022-09-25T13:23:57.845Z,20.97
2022-09-25T13:27:04.718Z,20.74
2022-09-25T13:30:08.147Z,20.57
2022-09-25T13:33:22.188Z,20.59
2022-09-25T13:36:39.753Z,20.57
2022-09-25T13:40:11.946Z,20.47
2022-09-25T13:43:20.825Z,20.37
2022-09-25T13:46:25.030Z,20.40
2022-09-25T13:49:35.365Z,20.42
2022-09-25T13:53:15.946Z,20.40
2022-09-25T13:56:24.769Z,20.28
2022-09-25T13:59:38.676Z,20.29
2022-09-25T14:02:46.483Z,20.24
2022-09-25T14:05:49.742Z,20.35
2022-09-25T14:09:07.682Z,20.24
2022-09-25T14:12:19.577Z,20.19
2022-09-25T14:15:28.345Z,19.93
2022-09-25T14:18:36.270Z,20.08
2022-09-25T14:21:39.389Z,19.93
2022-09-25T14:24:45.270Z,19.98
2022-09-25T14:27:52.057Z,19.91
2022-09-25T14:31:15.299Z,19.82
2022-09-25T14:34:37.862Z,19.95
2022-09-25T14:37:55.995Z,19.95
2022-09-25T14:41:22.252Z,19.98
2022-09-25T14:44:49.208Z,20.14
2022-09-25T14:47:57.066Z,20.18
2022-09-25T14:51:02.671Z,20.11
2022-09-25T14:54:08.739Z,20.10
2022-09-25T14:57:19.034Z,19.89
2022-09-25T15:00:24.601Z,19.86
2022-09-25T15:03:33.586Z,19.86
2022-09-25T15:06:39.118Z,19.86
2022-09-25T15:09:47.531Z,19.86
2022-09-25T15:12:52.210Z,19.79
2022-09-25T15:16:15.467Z,19.71
2022-09-25T15:19:21.085Z,19.71
2022-09-25T15:22:25.662Z,19.48
2022-09-25T15:25:31.686Z,19.26
2022-09-25T15:28:41.009Z,19.20
2022-09-25T15:31:51.428Z,19.12
2022-09-25T15:35:16.034Z,19.01
2022-09-25T15:38:18.851Z,19.01
2022-09-25T15:41:23.172Z,19.01
2022-09-25T15:44:27.439Z,18.91
2022-09-25T15:47:49.874Z,18.81
2022-09-25T15:50:54.269Z,18.78
2022-09-25T15:54:00.236Z,18.69
2022-09-25T15:57:06.621Z,18.75
2022-09-25T16:00:36.767Z,18.75
2022-09-25T16:04:02.677Z,18.71
2022-09-25T16:07:24.912Z,18.71
2022-09-25T16:10:33.311Z,18.61
2022-09-25T16:13:39.778Z,18.48
2022-09-25T16:16:49.933Z,18.35
2022-09-25T16:20:00.277Z,18.31
2022-09-25T16:23:06.430Z,18.26
2022-09-25T16:26:16.835Z,18.19
2022-09-25T16:29:22.394Z,18.06
2022-09-25T16:32:27.334Z,18.00
2022-09-25T16:36:05.320Z,17.86
2022-09-25T16:39:13.615Z,17.75
2022-09-25T16:42:40.094Z,17.67
2022-09-25T16:45:59.148Z,17.54
2022-09-25T16:49:04.852Z,17.31
2022-09-25T16:52:08.890Z,17.06
2022-09-25T16:55:21.398Z,17.05
2022-09-25T16:58:24.129Z,16.92
2022-09-25T17:01:28.811Z,17.00
2022-09-25T17:04:35.949Z,17.00
2022-09-25T17:07:38.570Z,16.95
2022-09-25T17:10:42.013Z,16.91
2022-09-25T17:13:45.176Z,16.87
2022-09-25T17:16:47.848Z,16.81
2022-09-25T17:19:51.921Z,16.75
2022-09-25T17:22:55.510Z,16.72
2022-09-25T17:26:02.286Z,16.67
2022-09-25T17:29:05.066Z,16.65
2022-09-25T17:32:08.879Z,16.62
2022-09-25T17:35:33.421Z,16.62
2022-09-25T17:38:36.003Z,16.53
2022-09-25T17:41:39.033Z,16.51
2022-09-25T17:44:43.737Z,16.40
2022-09-25T17:47:46.474Z,16.36
2022-09-25T17:50:50.970Z,16.32
2022-09-25T17:53:54.387Z,16.29
2022-09-25T17:56:57.157Z,16.27
2022-09-25T17:59:59.713Z,16.23
2022-09-25T18:03:02.365Z,16.16
2022-09-25T18:06:07.142Z,16.12
2022-09-25T18:09:09.699Z,16.04
2022-09-25T18:12:12.382Z,16.03
2022-09-25T18:15:14.956Z,16.03
2022-09-25T18:18:17.778Z,15.99
2022-09-25T18:21:39.563Z,15.99
2022-09-25T18:24:42.578Z,15.92
2022-09-25T18:27:46.576Z,15.92
2022-09-25T18:30:49.207Z,15.90
2022-09-25T18:33:54.878Z,15.85
2022-09-25T18:36:58.835Z,15.74
2022-09-25T18:40:01.813Z,15.73
2022-09-25T18:43:04.385Z,15.68
2022-09-25T18:46:07.168Z,15.65
2022-09-25T18:49:10.813Z,15.52
2022-09-25T18:52:15.744Z,15.54
2022-09-25T18:55:18.524Z,15.49
2022-09-25T18:58:21.419Z,15.46
2022-09-25T19:01:24.119Z,15.41
2022-09-25T19:04:27.259Z,15.39
2022-09-25T19:07:31.245Z,15.26
2022-09-25T19:10:34.638Z,15.28
2022-09-25T19:13:37.188Z,15.30
2022-09-25T19:16:39.936Z,15.30
2022-09-25T19:19:43.886Z,15.31
2022-09-25T19:22:47.950Z,15.31
2022-09-25T19:25:55.126Z,15.33
2022-09-25T19:28:57.834Z,15.34
2022-09-25T19:32:00.387Z,15.29
2022-09-25T19:35:03.096Z,15.22
2022-09-25T19:38:12.412Z,15.23
2022-09-25T19:41:18.519Z,15.21
2022-09-25T19:44:21.450Z,15.22
2022-09-25T19:47:24.309Z,15.21
2022-09-25T19:50:26.970Z,15.20
2022-09-25T19:53:31.022Z,15.18
2022-09-25T19:56:33.719Z,15.15
2022-09-25T19:59:36.545Z,15.10
2022-09-25T20:02:39.312Z,15.08
2022-09-25T20:05:42.629Z,15.03
2022-09-25T20:08:46.743Z,14.98
2022-09-25T20:11:49.276Z,14.94
2022-09-25T20:14:52.033Z,14.89
2022-09-25T20:17:56.372Z,14.89
2022-09-25T20:21:03.127Z,14.90
2022-09-25T20:24:09.059Z,14.97
2022-09-25T20:27:11.729Z,15.01
2022-09-25T20:30:14.450Z,15.10
2022-09-25T20:33:17.121Z,15.08
2022-09-25T20:36:19.979Z,15.24
2022-09-25T20:39:24.066Z,15.31
2022-09-25T20:42:26.769Z,15.43
2022-09-25T20:45:29.461Z,15.46
2022-09-25T20:48:33.681Z,15.48
2022-09-25T20:51:36.881Z,15.39
2022-09-25T20:54:41.584Z,15.41
2022-09-25T20:57:44.318Z,15.43
2022-09-25T21:00:49.027Z,15.42
2022-09-25T21:03:53.118Z,15.33
2022-09-25T21:06:55.890Z,15.17
2022-09-25T21:09:59.975Z,15.14
2022-09-25T21:13:04.581Z,15.04
2022-09-25T21:16:09.608Z,14.91
2022-09-25T21:19:14.221Z,14.69
2022-09-25T21:22:16.923Z,14.84
2022-09-25T21:25:21.109Z,15.01
2022-09-25T21:28:23.751Z,15.04
2022-09-25T21:31:29.157Z,15.20
2022-09-25T21:34:31.749Z,15.32
2022-09-25T21:37:35.524Z,15.14
2022-09-25T21:40:39.467Z,15.10
2022-09-25T21:43:43.056Z,14.98
2022-09-25T21:46:45.811Z,14.93
2022-09-25T21:49:49.049Z,14.92
2022-09-25T21:52:51.606Z,14.84
2022-09-25T21:56:02.621Z,15.05
2022-09-25T21:59:08.711Z,14.98
2022-09-25T22:02:11.932Z,14.93
2022-09-25T22:05:14.591Z,14.69
2022-09-25T22:08:17.925Z,14.71
2022-09-25T22:11:23.864Z,14.88
2022-09-25T22:14:26.632Z,14.77
2022-09-25T22:17:29.204Z,14.80
2022-09-25T22:20:31.957Z,14.77
2022-09-25T22:23:35.487Z,14.68
2022-09-25T22:26:44.962Z,14.58
2022-09-25T22:29:47.552Z,14.51
2022-09-25T22:32:50.219Z,14.55
2022-09-25T22:35:59.236Z,14.56
2022-09-25T22:39:01.942Z,14.49
2022-09-25T22:42:06.001Z,14.42
2022-09-25T22:45:09.366Z,14.39
2022-09-25T22:48:11.928Z,14.55
2022-09-25T22:51:16.621Z,14.44
2022-09-25T22:54:19.830Z,14.32
2022-09-25T22:57:23.790Z,14.38
2022-09-25T23:00:26.731Z,14.33
2022-09-25T23:03:29.581Z,14.20
2022-09-25T23:06:34.639Z,14.30
2022-09-25T23:09:37.808Z,14.20
2022-09-25T23:12:41.871Z,14.23
2022-09-25T23:15:44.453Z,14.02
2022-09-25T23:18:47.149Z,14.07
2022-09-25T23:21:52.129Z,14.20
2022-09-25T23:24:54.863Z,14.20
2022-09-25T23:27:58.784Z,14.36
2022-09-25T23:31:06.834Z,14.51
2022-09-25T23:34:09.634Z,14.38
2022-09-25T23:37:13.708Z,14.04
2022-09-25T23:40:16.467Z,14.02
2022-09-25T23:43:20.774Z,14.06
2022-09-25T23:46:25.544Z,14.23
2022-09-25T23:49:28.394Z,14.35
2022-09-25T23:52:30.968Z,14.02
2022-09-25T23:55:33.707Z,14.06
2022-09-25T23:58:37.719Z,13.99
